SCDA 240500Z 23005KT 9999 OVC027 17/12 Q1014